Time;durP1;ratioP1;P1;durP2;ratioP2;P2;SDS_P1;SDS_P2;PMS_P1;PMS_P2;Temp;Humidity;BMP_temperature;BMP_pressure;BME280_temperature;BME280_humidity;BME280_pressure;Samples;Min_cycle;Max_cycle;Signal;HPM_P1;HPM_P2
2023/10/02 00:01:06;;;;;;;7.55;3.58;;;22.70;50.80;;;;;;5127193;27;45385;-65
2023/10/02 00:03:33;;;;;;;5.95;3.10;;;22.70;50.80;;;;;;5127273;27;45373;-66
2023/10/02 00:06:00;;;;;;;6.50;3.35;;;22.70;50.80;;;;;;5127592;27;45531;-66
2023/10/02 00:08:40;;;;;;;7.13;4.07;;;22.60;50.80;;;;;;5127318;27;45393;-66
2023/10/02 00:11:39;;;;;;;7.15;3.63;;;22.60;50.80;;;;;;5127321;27;45372;-65
2023/10/02 00:14:18;;;;;;;6.90;3.58;;;22.60;50.80;;;;;;5127230;27;45500;-66
2023/10/02 00:16:58;;;;;;;6.32;3.50;;;22.60;50.90;;;;;;5127462;27;45283;-65
2023/10/02 00:19:27;;;;;;;6.47;3.35;;;22.60;50.90;;;;;;5127072;27;45363;-66
2023/10/02 00:21:57;;;;;;;8.65;4.15;;;22.60;50.90;;;;;;5127200;27;45163;-65
2023/10/02 00:24:25;;;;;;;6.25;3.45;;;22.60;51.00;;;;;;5126944;27;45449;-65
2023/10/02 00:26:57;;;;;;;8.63;3.85;;;22.60;51.00;;;;;;5127283;27;45310;-65
2023/10/02 00:29:24;;;;;;;8.25;3.88;;;22.60;51.00;;;;;;5126613;27;47573;-65
2023/10/02 00:31:52;;;;;;;6.45;3.38;;;22.50;50.90;;;;;;5126811;27;45376;-65
2023/10/02 00:34:30;;;;;;;6.72;3.55;;;22.60;51.00;;;;;;5126896;27;45362;-66
2023/10/02 00:36:58;;;;;;;7.20;3.65;;;22.50;51.00;;;;;;5127301;27;45191;-65
2023/10/02 00:39:30;;;;;;;6.07;3.33;;;22.50;51.00;;;;;;5126752;27;45486;-65
2023/10/02 00:42:16;;;;;;;5.65;3.33;;;22.50;51.00;;;;;;5126762;27;45316;-66
2023/10/02 00:44:52;;;;;;;5.68;3.60;;;22.50;51.00;;;;;;5126865;27;45332;-65
2023/10/02 00:50:10;;;;;;;5.70;3.33;;;22.50;51.00;;;;;;5118649;27;46404;-66
2023/10/02 00:52:38;;;;;;;7.75;3.78;;;22.50;51.10;;;;;;5126631;27;45387;-66
2023/10/02 00:55:08;;;;;;;6.15;3.22;;;22.40;51.10;;;;;;5126610;27;45326;-65
2023/10/02 00:57:37;;;;;;;6.35;3.35;;;22.40;51.10;;;;;;5126853;27;45395;-65
2023/10/02 01:00:17;;;;;;;5.47;3.13;;;22.40;51.10;;;;;;5126508;27;45348;-66
2023/10/02 01:02:46;;;;;;;7.15;3.42;;;22.40;51.10;;;;;;5126458;27;45245;-65
2023/10/02 01:05:16;;;;;;;6.90;3.50;;;22.30;51.00;;;;;;5126582;27;45308;-64
2023/10/02 01:07:43;;;;;;;7.53;3.40;;;22.40;51.10;;;;;;5126739;27;45342;-64
2023/10/02 01:10:17;;;;;;;7.05;3.47;;;22.40;51.10;;;;;;5126484;27;45240;-67
2023/10/02 01:12:50;;;;;;;6.07;3.10;;;22.30;51.00;;;;;;5126374;27;45328;-66
2023/10/02 01:15:19;;;;;;;5.13;3.38;;;22.30;51.10;;;;;;5126549;27;45374;-66
2023/10/02 01:17:48;;;;;;;5.80;3.25;;;22.30;51.00;;;;;;5126860;27;45418;-66
2023/10/02 01:20:23;;;;;;;6.68;3.60;;;22.30;51.00;;;;;;5126218;27;46673;-66
2023/10/02 01:22:52;;;;;;;6.20;3.40;;;22.30;51.00;;;;;;5126375;27;45369;-66
2023/10/02 01:25:23;;;;;;;6.80;3.60;;;22.20;51.00;;;;;;5126281;27;45413;-66
2023/10/02 01:27:51;;;;;;;5.57;3.67;;;22.30;51.00;;;;;;5126368;27;45573;-66
2023/10/02 01:30:20;;;;;;;6.43;3.17;;;22.20;51.00;;;;;;5125799;27;45787;-67
2023/10/02 01:33:06;;;;;;;4.63;3.40;;;22.20;51.00;;;;;;5125870;27;45289;-66
2023/10/02 01:35:36;;;;;;;6.88;3.40;;;22.20;51.00;;;;;;5126182;27;45322;-66
2023/10/02 01:38:06;;;;;;;6.53;3.30;;;22.20;51.00;;;;;;5129608;27;45426;-65
2023/10/02 01:40:35;;;;;;;6.95;3.72;;;22.20;51.00;;;;;;5129439;27;46500;-65
2023/10/02 01:43:12;;;;;;;6.90;3.85;;;22.20;51.00;;;;;;5129489;27;45292;-66
2023/10/02 01:45:42;;;;;;;7.28;3.67;;;22.20;51.00;;;;;;5129594;27;45369;-65
2023/10/02 01:48:12;;;;;;;6.53;3.10;;;22.20;51.00;;;;;;5129872;27;45409;-65
2023/10/02 01:50:39;;;;;;;7.00;3.53;;;22.10;51.00;;;;;;5129370;27;45180;-65
2023/10/02 01:53:06;;;;;;;7.95;3.80;;;22.10;50.90;;;;;;5129258;27;45237;-65
2023/10/02 01:55:36;;;;;;;5.70;3.30;;;22.10;51.00;;;;;;5129439;27;45505;-66
2023/10/02 01:58:17;;;;;;;5.78;3.67;;;22.10;51.00;;;;;;5129528;27;45375;-65
2023/10/02 02:00:46;;;;;;;5.93;3.38;;;22.10;51.00;;;;;;5129589;27;45430;-65
2023/10/02 02:03:16;;;;;;;6.82;3.67;;;22.10;51.00;;;;;;5129124;27;45301;-65
2023/10/02 02:05:46;;;;;;;5.20;3.20;;;22.00;51.00;;;;;;5129252;27;45306;-66
2023/10/02 02:08:22;;;;;;;5.68;3.35;;;22.00;51.00;;;;;;5129573;27;45603;-65
2023/10/02 02:10:53;;;;;;;6.53;3.50;;;22.00;51.00;;;;;;5129024;27;46653;-65
2023/10/02 02:13:21;;;;;;;5.43;3.30;;;22.00;51.00;;;;;;5128909;27;45262;-66
2023/10/02 02:15:51;;;;;;;6.90;4.22;;;22.00;51.00;;;;;;5129283;27;45455;-65
2023/10/02 02:18:20;;;;;;;4.80;3.38;;;22.00;51.10;;;;;;5129406;27;45124;-65
2023/10/02 02:20:58;;;;;;;6.88;3.80;;;22.00;51.10;;;;;;5128750;27;46832;-65
2023/10/02 02:23:27;;;;;;;7.72;3.42;;;22.00;51.10;;;;;;5128797;27;45248;-66
2023/10/02 02:25:55;;;;;;;6.18;3.40;;;22.00;51.10;;;;;;5129166;27;45544;-65
2023/10/02 02:28:22;;;;;;;6.78;3.35;;;21.90;51.10;;;;;;5129054;27;45465;-66
2023/10/02 02:30:49;;;;;;;8.82;3.75;;;21.90;51.10;;;;;;5128397;27;46454;-65
2023/10/02 02:33:16;;;;;;;6.82;3.28;;;21.90;51.10;;;;;;5128501;27;45262;-66
2023/10/02 02:35:44;;;;;;;5.70;3.13;;;21.90;51.10;;;;;;5128794;27;45301;-65
2023/10/02 02:38:15;;;;;;;7.40;3.33;;;21.90;51.10;;;;;;5128880;27;45349;-66
2023/10/02 02:40:42;;;;;;;6.07;3.38;;;21.90;51.10;;;;;;5128474;27;47276;-66
2023/10/02 02:43:19;;;;;;;6.03;3.45;;;21.90;51.20;;;;;;5128471;27;45437;-66
2023/10/02 02:45:46;;;;;;;5.25;3.28;;;21.90;51.10;;;;;;5128519;27;45452;-66
2023/10/02 02:48:15;;;;;;;5.45;3.40;;;21.80;51.10;;;;;;5128805;27;45538;-66
2023/10/02 02:50:42;;;;;;;6.05;3.15;;;21.80;51.10;;;;;;5128304;27;46668;-67
2023/10/02 02:53:23;;;;;;;4.85;3.03;;;21.80;51.70;;;;;;5128140;27;45416;-67
2023/10/02 02:56:10;;;;;;;8.45;3.40;;;21.80;51.10;;;;;;5128578;27;45287;-67
2023/10/02 02:58:39;;;;;;;8.18;3.70;;;21.80;51.10;;;;;;5128462;27;45421;-66
2023/10/02 03:01:12;;;;;;;6.85;3.40;;;21.80;51.10;;;;;;5128206;27;45298;-66
2023/10/02 03:03:41;;;;;;;8.30;3.97;;;21.80;51.10;;;;;;5127924;27;45454;-66
2023/10/02 03:06:14;;;;;;;7.32;3.38;;;21.80;51.10;;;;;;5128347;27;45392;-67
2023/10/02 03:08:41;;;;;;;4.63;3.30;;;21.70;51.70;;;;;;5128502;27;45378;-67
2023/10/02 03:11:08;;;;;;;7.55;3.50;;;21.70;51.10;;;;;;5128014;27;46413;-67
2023/10/02 03:13:35;;;;;;;7.32;3.30;;;21.70;51.20;;;;;;5127856;27;45356;-67
2023/10/02 03:16:08;;;;;;;5.38;3.38;;;21.70;51.10;;;;;;5128197;27;45236;-67
2023/10/02 03:18:36;;;;;;;8.57;3.80;;;21.70;51.10;;;;;;5128527;27;45221;-67
2023/10/02 03:21:14;;;;;;;5.05;3.17;;;21.70;51.10;;;;;;5127764;27;45214;-68
2023/10/02 03:23:42;;;;;;;5.90;3.03;;;21.60;51.00;;;;;;5127785;27;45389;-66
2023/10/02 03:26:26;;;;;;;7.68;3.75;;;21.60;51.00;;;;;;5128163;27;45406;-67
2023/10/02 03:29:00;;;;;;;5.03;3.08;;;21.60;50.90;;;;;;5127747;27;45415;-67
2023/10/02 03:31:36;;;;;;;8.40;4.40;;;21.60;50.90;;;;;;5127660;27;46472;-67
2023/10/02 03:34:24;;;;;;;6.47;3.40;;;21.60;50.90;;;;;;5127591;27;45388;-66
2023/10/02 03:36:51;;;;;;;8.90;3.45;;;21.50;50.90;;;;;;5127703;27;45153;-65
2023/10/02 03:39:51;;;;;;;7.45;4.05;;;21.50;50.80;;;;;;5128010;27;45209;-65
2023/10/02 03:42:13;;;;;;;5.88;3.65;;;21.50;50.80;;;;;;5127367;27;46180;-65
2023/10/02 03:44:40;;;;;;;9.43;3.85;;;21.50;50.80;;;;;;5127490;27;45467;-66
2023/10/02 03:47:12;;;;;;;6.50;3.47;;;21.50;50.80;;;;;;5127661;27;45373;-65
2023/10/02 03:49:42;;;;;;;8.75;4.00;;;21.50;50.80;;;;;;5127782;27;45488;-65
2023/10/02 03:52:09;;;;;;;6.93;3.60;;;21.40;50.70;;;;;;5127505;27;46467;-65
2023/10/02 03:54:36;;;;;;;7.78;3.90;;;21.40;50.70;;;;;;5127130;27;45280;-65
2023/10/02 03:57:03;;;;;;;7.30;3.88;;;21.40;50.70;;;;;;5127516;27;45251;-65
2023/10/02 03:59:32;;;;;;;7.55;4.10;;;21.40;50.70;;;;;;5127093;27;45385;-65
2023/10/02 04:02:24;;;;;;;7.65;3.50;;;21.40;50.70;;;;;;5127326;27;46989;-65
2023/10/02 04:04:49;;;;;;;9.05;3.97;;;21.40;50.70;;;;;;5126987;27;45289;-66
2023/10/02 04:07:17;;;;;;;6.93;3.78;;;21.40;50.70;;;;;;5127340;27;45487;-65
2023/10/02 04:09:49;;;;;;;9.10;4.15;;;21.40;50.60;;;;;;5127442;27;45352;-65
2023/10/02 04:12:17;;;;;;;8.50;4.75;;;21.40;50.60;;;;;;5127082;27;45541;-65
2023/10/02 04:14:44;;;;;;;7.85;3.90;;;21.40;50.50;;;;;;5126977;27;45393;-65
2023/10/02 04:17:13;;;;;;;8.60;3.92;;;21.30;50.50;;;;;;5127354;27;45417;-66
2023/10/02 04:19:43;;;;;;;7.93;4.28;;;21.30;50.50;;;;;;5127390;27;45476;-65
2023/10/02 04:22:19;;;;;;;7.53;4.25;;;21.30;50.50;;;;;;5127068;27;46653;-65
2023/10/02 04:24:58;;;;;;;10.00;4.57;;;21.30;50.50;;;;;;5126815;27;45318;-65
2023/10/02 04:27:28;;;;;;;9.05;4.43;;;21.30;50.60;;;;;;5127086;27;45427;-65
2023/10/02 04:30:20;;;;;;;7.93;3.72;;;21.30;50.60;;;;;;5127061;27;45302;-65
2023/10/02 04:32:49;;;;;;;8.00;3.83;;;21.30;50.50;;;;;;5126629;27;46994;-65
2023/10/02 04:37:59;;;;;;;8.23;4.10;;;21.20;50.50;;;;;;5126378;27;45390;-65
2023/10/02 04:40:37;;;;;;;6.32;3.90;;;21.20;50.50;;;;;;5127249;27;45585;-65
2023/10/02 04:43:19;;;;;;;7.82;3.67;;;21.20;50.50;;;;;;5126600;27;46852;-65
2023/10/02 04:45:45;;;;;;;10.55;4.38;;;21.20;50.50;;;;;;5126614;27;45301;-65
2023/10/02 04:48:12;;;;;;;8.75;4.50;;;21.20;50.60;;;;;;5126995;27;45362;-65
2023/10/02 04:50:45;;;;;;;8.23;3.95;;;21.20;50.60;;;;;;5127054;27;45437;-65
2023/10/02 04:53:23;;;;;;;9.73;4.47;;;21.20;50.60;;;;;;5126238;27;46531;-66
2023/10/02 04:55:57;;;;;;;11.05;4.25;;;21.20;50.70;;;;;;5126600;27;45453;-65
2023/10/02 04:58:29;;;;;;;13.40;4.75;;;21.20;50.80;;;;;;5126707;27;45263;-65
2023/10/02 05:01:24;;;;;;;10.75;4.65;;;21.10;50.80;;;;;;5126722;27;45386;-65
2023/10/02 05:03:52;;;;;;;9.48;3.70;;;21.10;50.70;;;;;;5126390;27;45348;-65
2023/10/02 05:06:42;;;;;;;12.40;5.22;;;21.10;50.70;;;;;;5126477;27;45410;-65
2023/10/02 05:09:19;;;;;;;8.85;3.88;;;21.10;50.70;;;;;;5126328;27;45324;-66
2023/10/02 05:11:50;;;;;;;6.93;3.85;;;21.10;50.70;;;;;;5128480;27;45176;-65
2023/10/02 05:14:18;;;;;;;8.68;4.70;;;21.10;50.80;;;;;;5129666;27;47251;-65
2023/10/02 05:16:46;;;;;;;9.20;3.97;;;21.00;50.70;;;;;;5129895;27;45257;-65
2023/10/02 05:19:14;;;;;;;8.45;4.13;;;21.00;50.70;;;;;;5129884;27;45317;-65
2023/10/02 05:21:49;;;;;;;8.10;4.15;;;21.00;50.70;;;;;;5129985;27;45512;-65
2023/10/02 05:24:18;;;;;;;9.35;4.28;;;21.00;50.70;;;;;;5129595;27;45711;-65
2023/10/02 05:26:46;;;;;;;9.63;4.25;;;21.00;50.70;;;;;;5129754;27;45375;-65
2023/10/02 05:29:17;;;;;;;9.50;4.22;;;21.00;50.70;;;;;;5129370;27;45266;-66
2023/10/02 05:31:45;;;;;;;8.95;4.32;;;21.00;50.70;;;;;;5129917;27;45378;-65
2023/10/02 05:34:21;;;;;;;9.70;4.22;;;21.00;50.70;;;;;;5129353;27;45396;-65
2023/10/02 05:37:11;;;;;;;11.85;4.38;;;21.00;50.70;;;;;;5129601;27;45397;-65
2023/10/02 05:39:40;;;;;;;9.90;4.07;;;20.90;50.70;;;;;;5129636;27;45428;-65
2023/10/02 05:42:06;;;;;;;8.35;4.00;;;20.90;50.70;;;;;;5129734;27;45316;-65
2023/10/02 05:44:34;;;;;;;9.38;3.30;;;20.90;50.60;;;;;;5129495;27;45340;-65
2023/10/02 05:47:08;;;;;;;7.32;3.88;;;20.90;50.70;;;;;;5129464;27;45373;-65
2023/10/02 05:49:36;;;;;;;7.75;3.80;;;20.90;50.70;;;;;;5129484;27;45183;-65
2023/10/02 05:52:03;;;;;;;7.53;3.78;;;20.90;50.70;;;;;;5130087;27;45505;-66
2023/10/02 05:54:35;;;;;;;11.07;4.70;;;20.90;50.70;;;;;;5129043;27;45390;-65
2023/10/02 05:57:13;;;;;;;8.98;4.00;;;20.90;50.70;;;;;;5129324;27;45383;-66
2023/10/02 05:59:47;;;;;;;9.30;4.18;;;20.90;50.70;;;;;;5129290;27;45205;-65
2023/10/02 06:02:14;;;;;;;8.25;4.70;;;20.90;50.70;;;;;;5129671;27;45266;-65
2023/10/02 06:04:47;;;;;;;11.00;4.57;;;20.80;50.80;;;;;;5128809;27;45267;-66
2023/10/02 06:07:19;;;;;;;14.60;4.95;;;20.80;51.10;;;;;;5129436;27;45480;-65
2023/10/02 06:09:47;;;;;;;10.38;4.75;;;20.80;51.10;;;;;;5129308;27;45390;-65
2023/10/02 06:12:18;;;;;;;11.30;5.00;;;20.70;51.10;;;;;;5129505;27;45326;-64
2023/10/02 06:14:45;;;;;;;9.65;4.50;;;20.70;51.00;;;;;;5129089;27;45464;-65
2023/10/02 06:17:12;;;;;;;12.10;5.30;;;20.70;51.10;;;;;;5129059;27;45422;-65
2023/10/02 06:19:44;;;;;;;11.65;5.20;;;20.70;51.00;;;;;;5129171;27;45357;-65
2023/10/02 06:22:13;;;;;;;10.23;4.80;;;20.70;51.00;;;;;;5129076;27;45600;-65
2023/10/02 06:24:40;;;;;;;9.50;4.43;;;20.70;51.00;;;;;;5128731;27;45463;-65
2023/10/02 06:27:13;;;;;;;13.27;4.95;;;20.70;51.00;;;;;;5128900;27;45264;-65
2023/10/02 06:29:44;;;;;;;7.93;4.47;;;20.70;51.00;;;;;;5128740;27;45408;-64
2023/10/02 06:32:16;;;;;;;9.60;4.88;;;20.70;50.90;;;;;;5129427;27;45454;-64
2023/10/02 06:34:44;;;;;;;7.97;4.40;;;20.70;50.90;;;;;;5128716;27;48418;-64
2023/10/02 06:37:12;;;;;;;10.68;4.40;;;20.70;50.90;;;;;;5129081;27;45295;-64
2023/10/02 06:39:40;;;;;;;9.98;4.07;;;20.70;50.90;;;;;;5128964;27;45510;-64
2023/10/02 06:42:09;;;;;;;11.52;5.00;;;20.70;50.90;;;;;;5129022;27;45389;-64
2023/10/02 06:44:42;;;;;;;10.85;4.70;;;20.70;50.90;;;;;;5128527;27;46389;-64
2023/10/02 06:47:14;;;;;;;10.32;4.22;;;20.70;50.80;;;;;;5128598;27;45307;-65
2023/10/02 06:49:41;;;;;;;8.10;3.97;;;20.70;50.90;;;;;;5128874;27;45289;-65
2023/10/02 06:52:17;;;;;;;9.00;4.15;;;20.70;50.80;;;;;;5131359;27;45231;-65
2023/10/02 06:54:45;;;;;;;10.95;4.80;;;20.70;50.80;;;;;;5128062;27;46681;-65
2023/10/02 06:57:13;;;;;;;9.88;4.60;;;20.70;50.70;;;;;;5128317;27;45328;-65
2023/10/02 06:59:51;;;;;;;10.52;4.90;;;20.70;50.70;;;;;;5128355;27;45337;-65
2023/10/02 07:02:20;;;;;;;11.00;4.53;;;20.80;50.70;;;;;;5128528;27;45174;-65
2023/10/02 07:04:48;;;;;;;9.50;4.10;;;20.80;50.60;;;;;;5128073;27;47300;-66
2023/10/02 07:07:17;;;;;;;8.77;4.30;;;20.80;50.60;;;;;;5128160;27;45393;-65
2023/10/02 07:09:44;;;;;;;10.82;5.03;;;20.80;51.20;;;;;;5129246;27;45325;-65
2023/10/02 07:12:13;;;;;;;7.30;3.97;;;20.80;50.60;;;;;;5128194;27;45298;-66
2023/10/02 07:14:41;;;;;;;9.50;4.43;;;20.80;50.60;;;;;;5127977;27;45362;-65
2023/10/02 07:20:00;;;;;;;10.90;4.50;;;20.80;50.60;;;;;;5123918;27;45270;-65
2023/10/02 07:22:28;;;;;;;12.07;4.93;;;20.80;50.60;;;;;;5128770;27;45187;-65
2023/10/02 07:24:56;;;;;;;9.15;4.57;;;20.80;50.60;;;;;;5128025;27;45490;-66
2023/10/02 07:27:25;;;;;;;10.98;4.70;;;20.80;50.60;;;;;;5128331;27;45329;-64
2023/10/02 07:29:53;;;;;;;8.80;4.00;;;20.80;50.60;;;;;;5128363;27;45199;-66
2023/10/02 07:32:21;;;;;;;9.50;4.43;;;20.80;50.60;;;;;;5128529;27;45262;-66
2023/10/02 07:34:50;;;;;;;10.07;4.15;;;20.90;50.60;;;;;;5127004;27;46351;-66
2023/10/02 07:37:21;;;;;;;11.52;4.88;;;20.90;50.60;;;;;;5127814;27;45236;-65
2023/10/02 07:39:56;;;;;;;10.57;4.38;;;20.90;50.60;;;;;;5128239;27;45383;-65
2023/10/02 07:42:29;;;;;;;10.27;4.25;;;20.90;50.60;;;;;;5127803;27;45559;-65
2023/10/02 07:45:11;;;;;;;7.38;3.83;;;20.90;50.60;;;;;;5127611;27;45264;-64
2023/10/02 07:47:39;;;;;;;9.75;4.28;;;20.90;50.60;;;;;;5127506;27;45215;-62
2023/10/02 07:50:23;;;;;;;10.90;4.85;;;20.90;50.70;;;;;;5127658;27;45318;-64
2023/10/02 07:52:52;;;;;;;7.93;4.10;;;20.90;50.70;;;;;;5127713;27;45457;-64
2023/10/02 07:55:23;;;;;;;13.13;5.70;;;20.90;50.80;;;;;;5127444;27;47739;-63
2023/10/02 07:57:58;;;;;;;9.77;5.90;;;20.90;50.70;;;;;;5127474;27;45329;-64
2023/10/02 08:00:38;;;;;;;13.73;4.53;;;20.90;50.70;;;;;;5127483;27;45260;-64
2023/10/02 08:03:31;;;;;;;9.80;4.07;;;21.00;50.80;;;;;;5128007;27;45362;-66
2023/10/02 08:05:56;;;;;;;10.48;4.32;;;21.00;50.70;;;;;;5129689;27;46347;-65
2023/10/02 08:08:26;;;;;;;13.55;4.53;;;21.00;50.80;;;;;;5128516;27;45259;-65
2023/10/02 08:10:54;;;;;;;7.80;3.90;;;21.00;50.70;;;;;;5134587;27;45217;-66
2023/10/02 08:13:32;;;;;;;9.05;4.70;;;21.00;50.70;;;;;;5138353;27;45415;-65
2023/10/02 08:16:01;;;;;;;9.90;4.20;;;21.10;50.60;;;;;;5136973;27;46499;-66
2023/10/02 08:18:30;;;;;;;9.10;3.88;;;21.10;50.70;;;;;;5132499;27;45217;-64
2023/10/02 08:20:57;;;;;;;10.23;4.38;;;21.10;50.70;;;;;;5127544;27;45309;-66
2023/10/02 08:23:27;;;;;;;11.18;4.60;;;21.10;50.70;;;;;;5127745;27;45438;-67
2023/10/02 08:26:06;;;;;;;16.63;6.13;;;21.10;50.70;;;;;;5125373;27;46518;-67
2023/10/02 08:28:34;;;;;;;19.95;6.65;;;21.10;50.40;;;;;;5127281;27;45372;-66
2023/10/02 08:31:02;;;;;;;20.88;7.80;;;21.10;50.40;;;;;;5126674;27;45603;-66
2023/10/02 08:33:30;;;;;;;22.00;7.72;;;21.10;50.10;;;;;;5123896;27;45320;-68
2023/10/02 08:35:58;;;;;;;21.40;7.47;;;21.10;49.80;;;;;;5123608;27;45399;-67
2023/10/02 08:38:26;;;;;;;18.65;7.43;;;21.10;49.90;;;;;;5126344;27;45393;-67
2023/10/02 08:40:58;;;;;;;21.67;8.60;;;21.10;49.90;;;;;;5124424;27;45367;-67
2023/10/02 08:43:25;;;;;;;22.38;8.80;;;21.20;50.00;;;;;;5125182;27;45559;-66
2023/10/02 08:45:51;;;;;;;21.80;8.68;;;21.20;50.00;;;;;;5128343;27;45418;-67
2023/10/02 08:48:20;;;;;;;19.90;7.60;;;21.20;50.00;;;;;;5111600;27;45344;-67
2023/10/02 08:50:48;;;;;;;24.25;9.38;;;21.20;50.00;;;;;;5116166;27;45434;-67
2023/10/02 08:53:20;;;;;;;22.00;8.95;;;21.20;49.90;;;;;;5130661;27;45687;-67
2023/10/02 08:55:54;;;;;;;21.55;8.60;;;21.30;50.00;;;;;;5130663;27;45458;-67
2023/10/02 08:58:22;;;;;;;26.10;8.88;;;21.30;50.00;;;;;;5130683;27;45251;-67
2023/10/02 09:01:20;;;;;;;20.95;8.20;;;21.30;50.00;;;;;;5130981;27;45385;-67
2023/10/02 09:04:21;;;;;;;22.02;8.48;;;21.30;49.80;;;;;;5130905;27;45271;-67
2023/10/02 09:06:41;;;;;;;24.30;9.38;;;21.30;49.90;;;;;;5129939;27;45978;-67
2023/10/02 09:09:17;;;;;;;23.23;9.00;;;21.40;50.10;;;;;;5130742;27;45346;-66
2023/10/02 09:11:45;;;;;;;18.75;9.10;;;21.40;50.00;;;;;;5130452;27;45339;-65
2023/10/02 09:14:21;;;;;;;21.92;8.60;;;21.40;50.20;;;;;;5130445;27;45453;-65
2023/10/02 09:16:48;;;;;;;22.25;9.13;;;21.40;50.20;;;;;;5112561;27;46697;-65
2023/10/02 09:19:34;;;;;;;20.98;8.73;;;21.50;50.10;;;;;;5109173;27;45402;-65
2023/10/02 09:22:07;;;;;;;22.60;10.00;;;21.50;50.10;;;;;;5126361;27;45405;-66
2023/10/02 09:24:35;;;;;;;22.98;9.30;;;21.60;50.60;;;;;;5117813;27;45414;-65
2023/10/02 09:29:45;;;;;;;22.33;9.05;;;21.60;50.10;;;;;;5116865;27;45308;-66
2023/10/02 09:32:21;;;;;;;17.10;8.13;;;21.60;49.90;;;;;;5125914;27;45395;-65
2023/10/02 09:35:08;;;;;;;21.40;8.68;;;21.70;50.00;;;;;;5115380;27;45527;-66
2023/10/02 09:37:36;;;;;;;23.60;8.18;;;21.70;49.90;;;;;;5116453;27;46399;-65
2023/10/02 09:40:14;;;;;;;22.98;8.52;;;21.80;49.90;;;;;;5125711;27;45252;-66
2023/10/02 09:42:45;;;;;;;22.95;8.95;;;21.80;49.90;;;;;;5116162;27;45442;-66
2023/10/02 09:45:15;;;;;;;24.45;9.10;;;21.90;50.10;;;;;;5109281;27;45255;-67
2023/10/02 09:47:43;;;;;;;19.92;9.23;;;21.90;50.20;;;;;;5122979;27;45716;-67
2023/10/02 09:50:12;;;;;;;19.02;8.50;;;21.90;50.20;;;;;;5115960;27;45307;-65
2023/10/02 09:52:58;;;;;;;24.88;9.35;;;22.00;50.30;;;;;;5124733;27;45405;-65
2023/10/02 09:55:33;;;;;;;21.65;8.98;;;22.00;50.30;;;;;;5123189;27;45418;-65
2023/10/02 09:58:03;;;;;;;23.98;9.95;;;22.10;50.30;;;;;;5111162;27;45318;-65
2023/10/02 10:00:37;;;;;;;24.15;9.65;;;22.10;50.40;;;;;;5125629;27;45370;-64
2023/10/02 10:03:30;;;;;;;24.40;9.38;;;22.20;50.50;;;;;;5121682;27;45630;-64
2023/10/02 10:06:19;;;;;;;20.25;9.27;;;22.20;50.60;;;;;;5094805;27;45305;-65
2023/10/02 10:09:25;;;;;;;26.63;9.88;;;22.30;50.70;;;;;;5120388;27;48868;-65
2023/10/02 10:12:21;;;;;;;23.40;9.10;;;22.40;50.70;;;;;;5112925;27;45442;-67
2023/10/02 10:14:41;;;;;;;25.90;9.57;;;22.40;50.60;;;;;;5119506;27;45520;-64
2023/10/02 10:17:14;;;;;;;22.63;8.45;;;22.50;50.50;;;;;;5111507;27;45527;-65
2023/10/02 10:19:41;;;;;;;20.27;8.95;;;22.60;50.40;;;;;;5117339;27;46552;-65
2023/10/02 10:22:35;;;;;;;24.85;10.38;;;22.60;50.30;;;;;;5115118;27;45345;-67
2023/10/02 10:27:58;;;;;;;24.55;9.27;;;22.80;50.20;;;;;;5118534;27;45678;-65
2023/10/02 10:30:46;;;;;;;22.15;8.90;;;22.90;50.30;;;;;;5118245;27;47613;-65
2023/10/02 10:33:36;;;;;;;19.60;9.75;;;22.90;50.60;;;;;;5111413;27;45520;-66
2023/10/02 10:36:12;;;;;;;24.10;9.30;;;23.00;50.80;;;;;;5120878;27;45409;-65
2023/10/02 10:38:41;;;;;;;24.33;9.77;;;23.10;50.40;;;;;;5121016;27;45257;-66
2023/10/02 10:41:09;;;;;;;19.38;9.52;;;23.20;50.40;;;;;;5127769;27;46769;-65
2023/10/02 10:43:55;;;;;;;28.13;10.10;;;23.30;50.50;;;;;;5121097;27;45425;-67
2023/10/02 10:46:24;;;;;;;24.92;10.18;;;23.30;50.30;;;;;;5128845;27;45441;-66
2023/10/02 10:48:59;;;;;;;23.77;9.88;;;23.40;50.20;;;;;;5128595;27;45537;-66
2023/10/02 10:51:27;;;;;;;23.88;10.32;;;23.60;50.10;;;;;;5126047;27;47156;-65
2023/10/02 10:54:00;;;;;;;31.58;10.27;;;23.60;49.80;;;;;;5127991;27;45367;-65
2023/10/02 10:56:27;;;;;;;26.23;10.02;;;23.70;49.70;;;;;;5116721;27;45372;-66
2023/10/02 10:58:58;;;;;;;33.13;11.18;;;23.80;49.50;;;;;;5122827;27;45382;-68
2023/10/02 11:01:27;;;;;;;20.92;9.95;;;23.90;49.30;;;;;;5111066;27;47571;-66
2023/10/02 11:04:02;;;;;;;22.95;10.25;;;24.00;49.20;;;;;;5121864;27;45583;-66
2023/10/02 11:06:29;;;;;;;26.75;10.32;;;24.10;48.90;;;;;;5119033;27;45402;-65
2023/10/02 11:09:11;;;;;;;24.15;9.77;;;24.20;48.60;;;;;;5111995;27;45382;-66
2023/10/02 11:11:48;;;;;;;22.33;10.10;;;24.20;48.30;;;;;;5111712;27;46470;-66
2023/10/02 11:14:20;;;;;;;26.17;10.02;;;24.40;48.90;;;;;;5118449;27;45477;-66
2023/10/02 11:16:52;;;;;;;23.42;9.38;;;24.50;48.40;;;;;;5121107;27;45340;-66
2023/10/02 11:19:25;;;;;;;23.75;10.55;;;24.50;48.30;;;;;;5125464;27;45459;-66
2023/10/02 11:22:18;;;;;;;23.27;8.63;;;24.60;48.30;;;;;;5127883;27;46514;-66
2023/10/02 11:24:45;;;;;;;25.92;10.00;;;24.70;48.60;;;;;;5121462;27;45464;-66
2023/10/02 11:27:15;;;;;;;24.73;9.75;;;24.80;48.60;;;;;;5128466;27;45353;-65
2023/10/02 11:29:41;;;;;;;24.50;9.35;;;24.90;48.40;;;;;;5124638;27;45199;-66
2023/10/02 11:32:20;;;;;;;21.63;9.23;;;25.00;48.40;;;;;;5113664;27;47260;-66
2023/10/02 11:34:47;;;;;;;24.35;9.85;;;25.10;48.40;;;;;;5107306;27;45396;-66
2023/10/02 11:37:14;;;;;;;23.45;9.02;;;25.10;48.40;;;;;;5107381;27;45332;-66
2023/10/02 11:39:42;;;;;;;20.63;9.55;;;25.20;49.00;;;;;;5107416;27;45483;-66
2023/10/02 11:42:09;;;;;;;19.77;8.60;;;25.30;48.40;;;;;;5107207;27;45539;-66
2023/10/02 11:44:39;;;;;;;22.23;9.60;;;25.30;48.40;;;;;;5107001;27;45496;-66
2023/10/02 11:47:09;;;;;;;21.63;9.38;;;25.40;48.40;;;;;;5107439;27;45248;-67
2023/10/02 11:49:38;;;;;;;20.95;8.68;;;25.50;48.30;;;;;;5107678;27;45338;-67
2023/10/02 11:52:05;;;;;;;19.63;8.43;;;25.60;48.30;;;;;;5107101;27;46458;-67
2023/10/02 11:54:36;;;;;;;23.40;9.50;;;25.60;48.30;;;;;;5107170;27;45334;-67
2023/10/02 11:57:08;;;;;;;20.70;8.30;;;25.70;48.80;;;;;;5107315;27;45274;-67
2023/10/02 11:59:36;;;;;;;21.55;8.93;;;25.80;48.10;;;;;;5107608;27;45435;-67
2023/10/02 12:02:03;;;;;;;18.88;8.57;;;25.90;48.10;;;;;;5107258;27;46402;-68
2023/10/02 12:04:31;;;;;;;20.23;8.60;;;26.00;48.00;;;;;;5106897;27;46081;-68
2023/10/02 12:06:59;;;;;;;19.95;8.80;;;26.00;48.00;;;;;;5107032;27;45297;-68
2023/10/02 12:09:27;;;;;;;19.73;9.18;;;26.10;48.00;;;;;;5107311;27;45509;-67
2023/10/02 12:11:55;;;;;;;21.52;8.48;;;26.20;48.00;;;;;;5106201;27;46685;-67
2023/10/02 12:14:22;;;;;;;16.92;8.25;;;26.20;47.80;;;;;;5107063;27;45333;-67
2023/10/02 12:16:49;;;;;;;16.80;8.38;;;26.30;47.80;;;;;;5106809;27;45386;-67
2023/10/02 12:19:16;;;;;;;18.33;8.13;;;26.40;47.80;;;;;;5107905;27;45459;-67
2023/10/02 12:21:43;;;;;;;21.08;9.13;;;26.40;47.50;;;;;;5126381;27;46736;-68
2023/10/02 12:24:11;;;;;;;20.27;7.90;;;26.50;47.70;;;;;;5127340;27;45483;-69
2023/10/02 12:26:38;;;;;;;21.42;8.90;;;26.50;47.30;;;;;;5127551;27;45344;-68
2023/10/02 12:29:05;;;;;;;20.80;9.50;;;26.60;47.40;;;;;;5127176;27;45558;-68
2023/10/02 12:31:36;;;;;;;19.10;8.82;;;26.70;47.20;;;;;;5127005;27;46042;-68
2023/10/02 12:34:03;;;;;;;20.00;8.73;;;26.70;47.00;;;;;;5127098;27;45291;-67
2023/10/02 12:36:30;;;;;;;17.73;8.45;;;26.80;47.20;;;;;;5127030;27;45333;-68
2023/10/02 12:38:58;;;;;;;19.00;7.97;;;26.80;47.20;;;;;;5127167;27;45555;-67
2023/10/02 12:41:28;;;;;;;17.90;8.30;;;26.90;47.10;;;;;;5127107;27;46397;-67
2023/10/02 12:43:56;;;;;;;22.98;8.73;;;27.00;47.00;;;;;;5126525;27;45336;-67
2023/10/02 12:46:24;;;;;;;22.58;8.98;;;27.10;46.80;;;;;;5127037;27;45365;-69
2023/10/02 12:48:51;;;;;;;27.35;9.10;;;27.10;46.50;;;;;;5127250;27;45397;-69
2023/10/02 12:51:18;;;;;;;17.02;7.70;;;27.10;46.40;;;;;;5108294;27;46738;-67
2023/10/02 12:53:45;;;;;;;17.45;8.10;;;27.10;46.70;;;;;;5117072;27;45435;-67
2023/10/02 12:56:15;;;;;;;19.10;8.23;;;27.20;46.50;;;;;;5115604;27;45440;-67
2023/10/02 12:58:43;;;;;;;22.55;9.43;;;27.20;46.00;;;;;;5115958;27;45556;-67
2023/10/02 13:01:13;;;;;;;19.80;8.63;;;27.30;46.30;;;;;;5105578;27;45418;-66
2023/10/02 13:03:42;;;;;;;23.83;8.50;;;27.40;45.40;;;;;;5105921;27;45346;-65
2023/10/02 13:06:12;;;;;;;22.73;8.75;;;27.40;46.00;;;;;;5106038;27;45331;-66
2023/10/02 13:08:40;;;;;;;20.67;7.28;;;27.50;45.40;;;;;;5106034;27;45630;-66
2023/10/02 13:11:12;;;;;;;19.33;8.88;;;27.60;45.30;;;;;;5105831;27;45468;-67
2023/10/02 13:13:39;;;;;;;16.75;7.68;;;27.70;45.30;;;;;;5105737;27;45278;-66
2023/10/02 13:16:08;;;;;;;21.58;8.25;;;27.70;45.10;;;;;;5106252;27;45426;-68
2023/10/02 13:18:35;;;;;;;20.92;8.13;;;27.80;45.00;;;;;;5106284;27;45394;-69